sensor_id;sensor_type;location;lat;lon;timestamp;P1;durP1;ratioP1;P2;durP2;ratioP2
56399;SDS011;42298;53.638;9.876;2023-06-26T00:00:44;12.05;;;8.63;;
56399;SDS011;42298;53.638;9.876;2023-06-26T00:03:09;13.07;;;9.35;;
56399;SDS011;42298;53.638;9.876;2023-06-26T00:05:40;12.60;;;9.43;;
56399;SDS011;42298;53.638;9.876;2023-06-26T00:08:06;13.15;;;9.18;;
56399;SDS011;42298;53.638;9.876;2023-06-26T00:10:32;12.88;;;9.60;;
56399;SDS011;42298;53.638;9.876;2023-06-26T00:12:57;12.32;;;9.60;;
56399;SDS011;42298;53.638;9.876;2023-06-26T00:15:22;13.27;;;9.75;;
56399;SDS011;42298;53.638;9.876;2023-06-26T00:17:47;13.73;;;9.75;;
56399;SDS011;42298;53.638;9.876;2023-06-26T00:20:13;13.00;;;9.75;;
56399;SDS011;42298;53.638;9.876;2023-06-26T00:22:39;11.43;;;8.70;;
56399;SDS011;42298;53.638;9.876;2023-06-26T00:25:08;11.95;;;9.45;;
56399;SDS011;42298;53.638;9.876;2023-06-26T00:27:33;13.40;;;9.18;;
56399;SDS011;42298;53.638;9.876;2023-06-26T00:29:59;12.27;;;9.07;;
56399;SDS011;42298;53.638;9.876;2023-06-26T00:32:25;12.63;;;9.52;;
56399;SDS011;42298;53.638;9.876;2023-06-26T00:34:50;11.52;;;8.98;;
56399;SDS011;42298;53.638;9.876;2023-06-26T00:37:18;11.38;;;8.77;;
56399;SDS011;42298;53.638;9.876;2023-06-26T00:39:43;12.05;;;9.70;;
56399;SDS011;42298;53.638;9.876;2023-06-26T00:42:08;11.27;;;8.85;;
56399;SDS011;42298;53.638;9.876;2023-06-26T00:44:34;13.23;;;9.35;;
56399;SDS011;42298;53.638;9.876;2023-06-26T00:46:59;12.82;;;9.55;;
56399;SDS011;42298;53.638;9.876;2023-06-26T00:49:24;13.27;;;10.43;;
56399;SDS011;42298;53.638;9.876;2023-06-26T00:51:51;13.13;;;10.40;;
56399;SDS011;42298;53.638;9.876;2023-06-26T00:54:17;13.13;;;9.80;;
56399;SDS011;42298;53.638;9.876;2023-06-26T00:56:45;12.48;;;10.00;;
56399;SDS011;42298;53.638;9.876;2023-06-26T00:59:12;12.95;;;10.40;;
56399;SDS011;42298;53.638;9.876;2023-06-26T01:01:37;11.60;;;9.30;;
56399;SDS011;42298;53.638;9.876;2023-06-26T01:04:02;13.45;;;9.90;;
56399;SDS011;42298;53.638;9.876;2023-06-26T01:06:28;15.18;;;10.82;;
56399;SDS011;42298;53.638;9.876;2023-06-26T01:08:57;14.10;;;10.43;;
56399;SDS011;42298;53.638;9.876;2023-06-26T01:11:24;13.25;;;10.13;;
56399;SDS011;42298;53.638;9.876;2023-06-26T01:13:49;14.20;;;9.82;;
56399;SDS011;42298;53.638;9.876;2023-06-26T01:16:18;12.95;;;9.85;;
56399;SDS011;42298;53.638;9.876;2023-06-26T01:18:45;14.70;;;10.30;;
56399;SDS011;42298;53.638;9.876;2023-06-26T01:21:13;12.65;;;10.02;;
56399;SDS011;42298;53.638;9.876;2023-06-26T01:23:47;13.02;;;10.02;;
56399;SDS011;42298;53.638;9.876;2023-06-26T01:26:22;13.55;;;10.40;;
56399;SDS011;42298;53.638;9.876;2023-06-26T01:28:51;12.85;;;10.15;;
56399;SDS011;42298;53.638;9.876;2023-06-26T01:31:18;13.07;;;9.60;;
56399;SDS011;42298;53.638;9.876;2023-06-26T01:33:44;13.35;;;10.30;;
56399;SDS011;42298;53.638;9.876;2023-06-26T01:36:11;12.85;;;10.63;;
56399;SDS011;42298;53.638;9.876;2023-06-26T01:38:37;13.02;;;10.35;;
56399;SDS011;42298;53.638;9.876;2023-06-26T01:41:02;13.40;;;10.55;;
56399;SDS011;42298;53.638;9.876;2023-06-26T01:46:25;12.55;;;10.25;;
56399;SDS011;42298;53.638;9.876;2023-06-26T01:49:15;13.48;;;10.35;;
56399;SDS011;42298;53.638;9.876;2023-06-26T01:51:51;13.35;;;10.02;;
56399;SDS011;42298;53.638;9.876;2023-06-26T01:54:44;13.65;;;10.25;;
56399;SDS011;42298;53.638;9.876;2023-06-26T01:57:23;15.10;;;10.32;;
56399;SDS011;42298;53.638;9.876;2023-06-26T01:59:53;12.77;;;9.73;;
56399;SDS011;42298;53.638;9.876;2023-06-26T02:02:20;14.13;;;9.95;;
56399;SDS011;42298;53.638;9.876;2023-06-26T02:04:45;14.38;;;11.35;;
56399;SDS011;42298;53.638;9.876;2023-06-26T02:07:13;12.77;;;10.23;;
56399;SDS011;42298;53.638;9.876;2023-06-26T02:09:38;13.50;;;10.80;;
56399;SDS011;42298;53.638;9.876;2023-06-26T02:12:04;11.75;;;9.68;;
56399;SDS011;42298;53.638;9.876;2023-06-26T02:14:29;13.63;;;11.23;;
56399;SDS011;42298;53.638;9.876;2023-06-26T02:16:54;12.90;;;10.40;;
56399;SDS011;42298;53.638;9.876;2023-06-26T02:19:20;12.88;;;10.43;;
56399;SDS011;42298;53.638;9.876;2023-06-26T02:21:47;13.52;;;10.00;;
56399;SDS011;42298;53.638;9.876;2023-06-26T02:24:14;13.25;;;10.50;;
56399;SDS011;42298;53.638;9.876;2023-06-26T02:26:40;13.80;;;10.88;;
56399;SDS011;42298;53.638;9.876;2023-06-26T02:29:06;14.13;;;11.07;;
56399;SDS011;42298;53.638;9.876;2023-06-26T02:31:31;14.63;;;11.05;;
56399;SDS011;42298;53.638;9.876;2023-06-26T02:33:57;13.93;;;11.18;;
56399;SDS011;42298;53.638;9.876;2023-06-26T02:36:22;13.73;;;10.90;;
56399;SDS011;42298;53.638;9.876;2023-06-26T02:38:48;13.77;;;11.05;;
56399;SDS011;42298;53.638;9.876;2023-06-26T02:41:13;13.50;;;10.18;;
56399;SDS011;42298;53.638;9.876;2023-06-26T02:43:41;13.13;;;10.38;;
56399;SDS011;42298;53.638;9.876;2023-06-26T02:46:06;14.43;;;11.05;;
56399;SDS011;42298;53.638;9.876;2023-06-26T02:48:32;13.32;;;10.65;;
56399;SDS011;42298;53.638;9.876;2023-06-26T02:50:57;13.48;;;10.63;;
56399;SDS011;42298;53.638;9.876;2023-06-26T02:53:22;12.18;;;10.00;;
56399;SDS011;42298;53.638;9.876;2023-06-26T02:55:48;13.98;;;10.80;;
56399;SDS011;42298;53.638;9.876;2023-06-26T02:58:13;13.20;;;9.95;;
56399;SDS011;42298;53.638;9.876;2023-06-26T03:00:38;12.70;;;10.43;;
56399;SDS011;42298;53.638;9.876;2023-06-26T03:03:06;13.07;;;10.00;;
56399;SDS011;42298;53.638;9.876;2023-06-26T03:05:32;12.32;;;9.98;;
56399;SDS011;42298;53.638;9.876;2023-06-26T03:07:57;18.27;;;11.55;;
56399;SDS011;42298;53.638;9.876;2023-06-26T03:10:23;13.38;;;10.75;;
56399;SDS011;42298;53.638;9.876;2023-06-26T03:12:49;14.38;;;12.02;;
56399;SDS011;42298;53.638;9.876;2023-06-26T03:15:14;12.90;;;10.18;;
56399;SDS011;42298;53.638;9.876;2023-06-26T03:17:39;13.00;;;10.02;;
56399;SDS011;42298;53.638;9.876;2023-06-26T03:20:05;14.15;;;10.55;;
56399;SDS011;42298;53.638;9.876;2023-06-26T03:22:32;13.68;;;10.80;;
56399;SDS011;42298;53.638;9.876;2023-06-26T03:24:58;14.40;;;10.30;;
56399;SDS011;42298;53.638;9.876;2023-06-26T03:27:23;13.80;;;10.52;;
56399;SDS011;42298;53.638;9.876;2023-06-26T03:29:48;13.55;;;11.00;;
56399;SDS011;42298;53.638;9.876;2023-06-26T03:32:14;15.52;;;10.27;;
56399;SDS011;42298;53.638;9.876;2023-06-26T03:34:40;12.40;;;9.98;;
56399;SDS011;42298;53.638;9.876;2023-06-26T03:37:06;12.38;;;9.75;;
56399;SDS011;42298;53.638;9.876;2023-06-26T03:39:31;13.20;;;9.57;;
56399;SDS011;42298;53.638;9.876;2023-06-26T03:41:56;15.13;;;11.25;;
56399;SDS011;42298;53.638;9.876;2023-06-26T03:44:25;14.85;;;10.70;;
56399;SDS011;42298;53.638;9.876;2023-06-26T03:46:51;14.43;;;9.73;;
56399;SDS011;42298;53.638;9.876;2023-06-26T03:49:16;13.88;;;10.15;;
56399;SDS011;42298;53.638;9.876;2023-06-26T03:51:42;13.40;;;10.18;;
56399;SDS011;42298;53.638;9.876;2023-06-26T03:54:07;13.80;;;9.80;;
56399;SDS011;42298;53.638;9.876;2023-06-26T03:56:33;13.15;;;9.75;;
56399;SDS011;42298;53.638;9.876;2023-06-26T03:58:58;15.05;;;9.75;;
56399;SDS011;42298;53.638;9.876;2023-06-26T04:01:23;13.13;;;10.15;;
56399;SDS011;42298;53.638;9.876;2023-06-26T04:03:48;15.25;;;10.57;;
56399;SDS011;42298;53.638;9.876;2023-06-26T04:06:14;13.20;;;10.07;;
56399;SDS011;42298;53.638;9.876;2023-06-26T04:08:40;14.25;;;9.73;;
56399;SDS011;42298;53.638;9.876;2023-06-26T04:11:06;14.52;;;10.18;;
56399;SDS011;42298;53.638;9.876;2023-06-26T04:13:31;12.40;;;8.93;;
56399;SDS011;42298;53.638;9.876;2023-06-26T04:15:56;14.40;;;10.25;;
56399;SDS011;42298;53.638;9.876;2023-06-26T04:18:22;12.85;;;9.23;;
56399;SDS011;42298;53.638;9.876;2023-06-26T04:23:32;11.77;;;8.32;;
56399;SDS011;42298;53.638;9.876;2023-06-26T04:25:58;12.82;;;9.25;;
56399;SDS011;42298;53.638;9.876;2023-06-26T04:28:24;12.55;;;8.90;;
56399;SDS011;42298;53.638;9.876;2023-06-26T04:30:49;13.98;;;9.10;;
56399;SDS011;42298;53.638;9.876;2023-06-26T04:33:18;13.15;;;8.25;;
56399;SDS011;42298;53.638;9.876;2023-06-26T04:35:44;10.88;;;7.75;;
56399;SDS011;42298;53.638;9.876;2023-06-26T04:38:13;12.40;;;8.38;;
56399;SDS011;42298;53.638;9.876;2023-06-26T04:40:39;11.60;;;7.65;;
56399;SDS011;42298;53.638;9.876;2023-06-26T04:43:04;12.20;;;7.60;;
56399;SDS011;42298;53.638;9.876;2023-06-26T04:45:30;12.40;;;8.13;;
56399;SDS011;42298;53.638;9.876;2023-06-26T04:47:55;11.10;;;7.13;;
56399;SDS011;42298;53.638;9.876;2023-06-26T04:50:25;10.82;;;7.45;;
56399;SDS011;42298;53.638;9.876;2023-06-26T04:52:50;10.57;;;7.10;;
56399;SDS011;42298;53.638;9.876;2023-06-26T04:55:15;11.43;;;7.13;;
56399;SDS011;42298;53.638;9.876;2023-06-26T04:57:41;11.65;;;7.30;;
56399;SDS011;42298;53.638;9.876;2023-06-26T05:00:06;11.38;;;6.45;;
56399;SDS011;42298;53.638;9.876;2023-06-26T05:02:37;10.38;;;7.03;;
56399;SDS011;42298;53.638;9.876;2023-06-26T05:05:03;10.48;;;6.55;;
56399;SDS011;42298;53.638;9.876;2023-06-26T05:07:29;11.93;;;7.53;;
56399;SDS011;42298;53.638;9.876;2023-06-26T05:09:54;9.93;;;6.40;;
56399;SDS011;42298;53.638;9.876;2023-06-26T05:12:20;10.77;;;7.20;;
56399;SDS011;42298;53.638;9.876;2023-06-26T05:14:45;11.05;;;6.97;;
56399;SDS011;42298;53.638;9.876;2023-06-26T05:17:11;10.30;;;6.60;;
56399;SDS011;42298;53.638;9.876;2023-06-26T05:19:38;10.52;;;7.18;;
56399;SDS011;42298;53.638;9.876;2023-06-26T05:22:03;8.98;;;6.22;;
56399;SDS011;42298;53.638;9.876;2023-06-26T05:24:32;12.55;;;7.05;;
56399;SDS011;42298;53.638;9.876;2023-06-26T05:27:00;10.65;;;6.70;;
56399;SDS011;42298;53.638;9.876;2023-06-26T05:29:25;10.35;;;6.70;;
56399;SDS011;42298;53.638;9.876;2023-06-26T05:31:52;11.45;;;6.78;;
56399;SDS011;42298;53.638;9.876;2023-06-26T05:34:20;10.02;;;6.95;;
56399;SDS011;42298;53.638;9.876;2023-06-26T05:36:47;12.70;;;6.95;;
56399;SDS011;42298;53.638;9.876;2023-06-26T05:39:15;9.70;;;6.93;;
56399;SDS011;42298;53.638;9.876;2023-06-26T05:41:43;11.13;;;6.47;;
56399;SDS011;42298;53.638;9.876;2023-06-26T05:44:09;8.98;;;6.35;;
56399;SDS011;42298;53.638;9.876;2023-06-26T05:46:34;12.50;;;6.80;;
56399;SDS011;42298;53.638;9.876;2023-06-26T05:48:59;11.85;;;6.43;;
56399;SDS011;42298;53.638;9.876;2023-06-26T05:51:26;13.18;;;7.10;;
56399;SDS011;42298;53.638;9.876;2023-06-26T05:53:52;10.23;;;6.07;;
56399;SDS011;42298;53.638;9.876;2023-06-26T05:56:17;9.63;;;6.50;;
56399;SDS011;42298;53.638;9.876;2023-06-26T05:58:43;12.32;;;7.57;;
56399;SDS011;42298;53.638;9.876;2023-06-26T06:01:09;12.98;;;7.07;;
56399;SDS011;42298;53.638;9.876;2023-06-26T06:03:34;12.13;;;6.60;;
56399;SDS011;42298;53.638;9.876;2023-06-26T06:05:59;12.60;;;7.50;;
56399;SDS011;42298;53.638;9.876;2023-06-26T06:08:25;9.57;;;6.10;;
56399;SDS011;42298;53.638;9.876;2023-06-26T06:10:50;12.82;;;7.13;;
56399;SDS011;42298;53.638;9.876;2023-06-26T06:13:15;10.32;;;6.72;;
56399;SDS011;42298;53.638;9.876;2023-06-26T06:15:41;12.05;;;7.50;;
56399;SDS011;42298;53.638;9.876;2023-06-26T06:18:06;11.00;;;6.28;;
56399;SDS011;42298;53.638;9.876;2023-06-26T06:20:31;13.27;;;6.90;;
56399;SDS011;42298;53.638;9.876;2023-06-26T06:22:57;8.95;;;6.25;;
56399;SDS011;42298;53.638;9.876;2023-06-26T06:25:22;12.25;;;6.60;;
56399;SDS011;42298;53.638;9.876;2023-06-26T06:27:47;12.18;;;6.75;;
56399;SDS011;42298;53.638;9.876;2023-06-26T06:30:14;10.90;;;6.75;;
56399;SDS011;42298;53.638;9.876;2023-06-26T06:32:39;12.57;;;6.80;;
56399;SDS011;42298;53.638;9.876;2023-06-26T06:35:05;11.20;;;5.95;;
56399;SDS011;42298;53.638;9.876;2023-06-26T06:37:35;11.82;;;6.72;;
56399;SDS011;42298;53.638;9.876;2023-06-26T06:40:01;11.23;;;6.85;;
56399;SDS011;42298;53.638;9.876;2023-06-26T06:42:28;11.80;;;6.55;;
56399;SDS011;42298;53.638;9.876;2023-06-26T06:44:53;12.43;;;6.93;;
56399;SDS011;42298;53.638;9.876;2023-06-26T06:47:19;12.35;;;6.88;;
56399;SDS011;42298;53.638;9.876;2023-06-26T06:49:44;11.60;;;6.72;;
56399;SDS011;42298;53.638;9.876;2023-06-26T06:52:10;15.30;;;7.25;;
56399;SDS011;42298;53.638;9.876;2023-06-26T06:54:50;13.10;;;7.07;;
56399;SDS011;42298;53.638;9.876;2023-06-26T06:57:20;10.07;;;6.05;;
56399;SDS011;42298;53.638;9.876;2023-06-26T06:59:46;12.20;;;6.85;;
56399;SDS011;42298;53.638;9.876;2023-06-26T07:02:16;10.25;;;6.38;;
56399;SDS011;42298;53.638;9.876;2023-06-26T07:04:42;10.73;;;6.32;;
56399;SDS011;42298;53.638;9.876;2023-06-26T07:07:07;10.77;;;6.95;;
56399;SDS011;42298;53.638;9.876;2023-06-26T07:09:33;11.80;;;6.20;;
56399;SDS011;42298;53.638;9.876;2023-06-26T07:11:58;9.65;;;6.05;;
56399;SDS011;42298;53.638;9.876;2023-06-26T07:14:25;11.65;;;6.80;;
56399;SDS011;42298;53.638;9.876;2023-06-26T07:16:50;11.45;;;6.80;;
56399;SDS011;42298;53.638;9.876;2023-06-26T07:19:15;10.68;;;6.93;;
56399;SDS011;42298;53.638;9.876;2023-06-26T07:21:41;11.50;;;7.00;;
56399;SDS011;42298;53.638;9.876;2023-06-26T07:24:07;12.32;;;6.68;;
56399;SDS011;42298;53.638;9.876;2023-06-26T07:26:32;11.80;;;6.22;;
56399;SDS011;42298;53.638;9.876;2023-06-26T07:28:58;10.82;;;6.38;;
56399;SDS011;42298;53.638;9.876;2023-06-26T07:31:23;10.98;;;6.40;;
56399;SDS011;42298;53.638;9.876;2023-06-26T07:33:48;14.00;;;6.85;;
56399;SDS011;42298;53.638;9.876;2023-06-26T07:36:13;9.98;;;6.70;;
56399;SDS011;42298;53.638;9.876;2023-06-26T07:38:39;10.55;;;6.30;;
56399;SDS011;42298;53.638;9.876;2023-06-26T07:41:04;11.40;;;6.80;;
56399;SDS011;42298;53.638;9.876;2023-06-26T07:43:29;9.48;;;5.70;;
56399;SDS011;42298;53.638;9.876;2023-06-26T07:45:56;11.65;;;6.50;;
56399;SDS011;42298;53.638;9.876;2023-06-26T07:48:23;8.75;;;6.15;;
56399;SDS011;42298;53.638;9.876;2023-06-26T07:50:49;10.48;;;6.50;;
56399;SDS011;42298;53.638;9.876;2023-06-26T07:53:14;12.13;;;6.65;;
56399;SDS011;42298;53.638;9.876;2023-06-26T07:55:39;12.15;;;6.53;;
56399;SDS011;42298;53.638;9.876;2023-06-26T07:58:05;9.40;;;5.75;;
56399;SDS011;42298;53.638;9.876;2023-06-26T08:00:30;10.38;;;6.45;;
56399;SDS011;42298;53.638;9.876;2023-06-26T08:02:55;8.77;;;5.47;;
56399;SDS011;42298;53.638;9.876;2023-06-26T08:05:20;11.57;;;6.68;;
56399;SDS011;42298;53.638;9.876;2023-06-26T08:07:46;9.48;;;6.15;;
56399;SDS011;42298;53.638;9.876;2023-06-26T08:10:11;10.90;;;6.40;;
56399;SDS011;42298;53.638;9.876;2023-06-26T08:12:37;12.38;;;6.30;;
56399;SDS011;42298;53.638;9.876;2023-06-26T08:15:05;9.65;;;6.38;;
56399;SDS011;42298;53.638;9.876;2023-06-26T08:17:31;9.32;;;6.25;;
56399;SDS011;42298;53.638;9.876;2023-06-26T08:19:56;8.98;;;6.00;;
56399;SDS011;42298;53.638;9.876;2023-06-26T08:22:22;9.93;;;6.38;;
56399;SDS011;42298;53.638;9.876;2023-06-26T08:24:47;11.48;;;6.80;;
56399;SDS011;42298;53.638;9.876;2023-06-26T08:27:12;9.55;;;5.72;;
56399;SDS011;42298;53.638;9.876;2023-06-26T08:29:37;10.02;;;6.20;;
56399;SDS011;42298;53.638;9.876;2023-06-26T08:32:03;10.18;;;6.47;;
56399;SDS011;42298;53.638;9.876;2023-06-26T08:34:28;10.05;;;6.22;;
56399;SDS011;42298;53.638;9.876;2023-06-26T08:36:54;10.68;;;6.32;;
56399;SDS011;42298;53.638;9.876;2023-06-26T08:39:19;9.40;;;5.72;;
56399;SDS011;42298;53.638;9.876;2023-06-26T08:41:44;9.80;;;6.18;;
56399;SDS011;42298;53.638;9.876;2023-06-26T08:44:10;8.73;;;6.10;;
56399;SDS011;42298;53.638;9.876;2023-06-26T08:46:35;11.32;;;6.50;;
56399;SDS011;42298;53.638;9.876;2023-06-26T08:49:08;10.88;;;7.28;;
56399;SDS011;42298;53.638;9.876;2023-06-26T08:51:44;11.85;;;7.05;;
56399;SDS011;42298;53.638;9.876;2023-06-26T08:54:16;13.55;;;7.75;;
56399;SDS011;42298;53.638;9.876;2023-06-26T08:56:46;11.38;;;6.95;;
56399;SDS011;42298;53.638;9.876;2023-06-26T08:59:14;11.55;;;7.15;;
56399;SDS011;42298;53.638;9.876;2023-06-26T09:01:39;11.70;;;7.53;;
56399;SDS011;42298;53.638;9.876;2023-06-26T09:04:06;11.30;;;7.75;;
56399;SDS011;42298;53.638;9.876;2023-06-26T09:06:34;13.63;;;8.25;;
56399;SDS011;42298;53.638;9.876;2023-06-26T09:09:00;11.45;;;7.82;;
56399;SDS011;42298;53.638;9.876;2023-06-26T09:11:25;11.00;;;7.82;;
56399;SDS011;42298;53.638;9.876;2023-06-26T09:13:51;12.50;;;7.97;;
56399;SDS011;42298;53.638;9.876;2023-06-26T09:16:16;10.95;;;8.13;;
56399;SDS011;42298;53.638;9.876;2023-06-26T09:18:42;15.40;;;9.52;;
56399;SDS011;42298;53.638;9.876;2023-06-26T09:21:07;14.38;;;9.63;;
56399;SDS011;42298;53.638;9.876;2023-06-26T09:23:34;11.98;;;8.65;;
56399;SDS011;42298;53.638;9.876;2023-06-26T09:26:04;13.82;;;9.60;;
56399;SDS011;42298;53.638;9.876;2023-06-26T09:28:31;14.48;;;9.07;;
56399;SDS011;42298;53.638;9.876;2023-06-26T09:31:01;13.93;;;9.02;;
56399;SDS011;42298;53.638;9.876;2023-06-26T09:33:34;15.20;;;8.63;;
56399;SDS011;42298;53.638;9.876;2023-06-26T09:36:06;15.38;;;9.00;;
56399;SDS011;42298;53.638;9.876;2023-06-26T09:38:34;15.13;;;9.25;;
56399;SDS011;42298;53.638;9.876;2023-06-26T09:41:01;14.15;;;8.57;;
56399;SDS011;42298;53.638;9.876;2023-06-26T09:43:28;15.60;;;9.82;;
56399;SDS011;42298;53.638;9.876;2023-06-26T09:45:56;16.52;;;9.18;;
56399;SDS011;42298;53.638;9.876;2023-06-26T09:48:24;17.70;;;9.98;;
56399;SDS011;42298;53.638;9.876;2023-06-26T09:50:50;14.20;;;10.18;;
56399;SDS011;42298;53.638;9.876;2023-06-26T09:53:15;13.77;;;9.88;;
56399;SDS011;42298;53.638;9.876;2023-06-26T09:55:43;17.30;;;9.88;;
56399;SDS011;42298;53.638;9.876;2023-06-26T09:58:12;15.32;;;10.20;;
56399;SDS011;42298;53.638;9.876;2023-06-26T10:00:40;13.43;;;9.68;;
56399;SDS011;42298;53.638;9.876;2023-06-26T10:03:09;15.02;;;10.27;;
56399;SDS011;42298;53.638;9.876;2023-06-26T10:05:35;17.83;;;11.60;;
56399;SDS011;42298;53.638;9.876;2023-06-26T10:08:00;17.08;;;11.75;;
56399;SDS011;42298;53.638;9.876;2023-06-26T10:10:27;20.33;;;13.18;;
56399;SDS011;42298;53.638;9.876;2023-06-26T10:12:57;17.70;;;13.18;;
56399;SDS011;42298;53.638;9.876;2023-06-26T10:15:25;18.30;;;14.00;;
56399;SDS011;42298;53.638;9.876;2023-06-26T10:17:53;19.05;;;14.52;;
56399;SDS011;42298;53.638;9.876;2023-06-26T10:20:21;16.08;;;13.10;;
56399;SDS011;42298;53.638;9.876;2023-06-26T10:22:46;19.88;;;13.65;;
56399;SDS011;42298;53.638;9.876;2023-06-26T10:25:14;17.83;;;13.38;;
56399;SDS011;42298;53.638;9.876;2023-06-26T10:27:59;15.95;;;12.25;;
56399;SDS011;42298;53.638;9.876;2023-06-26T10:30:28;17.23;;;11.25;;
56399;SDS011;42298;53.638;9.876;2023-06-26T10:32:56;14.07;;;9.27;;
56399;SDS011;42298;53.638;9.876;2023-06-26T10:35:23;15.02;;;7.78;;
56399;SDS011;42298;53.638;9.876;2023-06-26T10:37:49;16.50;;;8.15;;
56399;SDS011;42298;53.638;9.876;2023-06-26T10:40:27;11.10;;;7.30;;
56399;SDS011;42298;53.638;9.876;2023-06-26T10:43:05;13.05;;;7.25;;
56399;SDS011;42298;53.638;9.876;2023-06-26T10:45:33;11.05;;;7.30;;
56399;SDS011;42298;53.638;9.876;2023-06-26T10:47:58;11.52;;;6.75;;
56399;SDS011;42298;53.638;9.876;2023-06-26T10:50:30;12.95;;;7.38;;
56399;SDS011;42298;53.638;9.876;2023-06-26T10:53:15;13.55;;;7.88;;
56399;SDS011;42298;53.638;9.876;2023-06-26T10:55:55;13.63;;;7.82;;
56399;SDS011;42298;53.638;9.876;2023-06-26T10:58:26;15.65;;;8.55;;
56399;SDS011;42298;53.638;9.876;2023-06-26T11:03:40;15.60;;;8.32;;
56399;SDS011;42298;53.638;9.876;2023-06-26T11:06:10;15.35;;;7.82;;
56399;SDS011;42298;53.638;9.876;2023-06-26T11:08:49;14.98;;;7.53;;
56399;SDS011;42298;53.638;9.876;2023-06-26T11:11:20;15.85;;;7.90;;
56399;SDS011;42298;53.638;9.876;2023-06-26T11:13:46;15.00;;;7.05;;
56399;SDS011;42298;53.638;9.876;2023-06-26T11:16:13;12.65;;;6.30;;
56399;SDS011;42298;53.638;9.876;2023-06-26T11:18:39;16.60;;;6.75;;
56399;SDS011;42298;53.638;9.876;2023-06-26T11:23:31;19.83;;;6.30;;
56399;SDS011;42298;53.638;9.876;2023-06-26T11:25:58;13.70;;;6.00;;
56399;SDS011;42298;53.638;9.876;2023-06-26T11:28:56;13.45;;;5.38;;
56399;SDS011;42298;53.638;9.876;2023-06-26T11:34:01;16.08;;;6.03;;
56399;SDS011;42298;53.638;9.876;2023-06-26T11:36:28;15.05;;;5.55;;
56399;SDS011;42298;53.638;9.876;2023-06-26T11:38:58;12.55;;;4.72;;
56399;SDS011;42298;53.638;9.876;2023-06-26T11:41:26;15.13;;;4.65;;
56399;SDS011;42298;53.638;9.876;2023-06-26T11:43:53;12.05;;;4.00;;
56399;SDS011;42298;53.638;9.876;2023-06-26T11:46:20;12.55;;;4.03;;
56399;SDS011;42298;53.638;9.876;2023-06-26T11:48:46;13.63;;;3.65;;
56399;SDS011;42298;53.638;9.876;2023-06-26T11:51:15;11.32;;;3.00;;
56399;SDS011;42298;53.638;9.876;2023-06-26T11:53:41;13.13;;;3.42;;
56399;SDS011;42298;53.638;9.876;2023-06-26T11:56:10;7.60;;;2.70;;
56399;SDS011;42298;53.638;9.876;2023-06-26T11:58:54;8.95;;;3.05;;
56399;SDS011;42298;53.638;9.876;2023-06-26T12:01:20;10.27;;;3.05;;
56399;SDS011;42298;53.638;9.876;2023-06-26T12:03:47;10.38;;;3.15;;
56399;SDS011;42298;53.638;9.876;2023-06-26T12:06:13;16.02;;;3.55;;
56399;SDS011;42298;53.638;9.876;2023-06-26T12:08:39;11.02;;;3.53;;
56399;SDS011;42298;53.638;9.876;2023-06-26T12:11:05;13.63;;;3.55;;
56399;SDS011;42298;53.638;9.876;2023-06-26T12:13:31;14.75;;;3.58;;
56399;SDS011;42298;53.638;9.876;2023-06-26T12:15:57;13.95;;;3.83;;
56399;SDS011;42298;53.638;9.876;2023-06-26T12:18:22;14.27;;;3.80;;
56399;SDS011;42298;53.638;9.876;2023-06-26T12:20:50;9.75;;;3.10;;
56399;SDS011;42298;53.638;9.876;2023-06-26T12:23:16;10.23;;;3.22;;
56399;SDS011;42298;53.638;9.876;2023-06-26T12:25:42;11.68;;;3.28;;
56399;SDS011;42298;53.638;9.876;2023-06-26T12:28:17;12.35;;;3.10;;
56399;SDS011;42298;53.638;9.876;2023-06-26T12:30:47;8.88;;;3.25;;
56399;SDS011;42298;53.638;9.876;2023-06-26T12:33:13;10.02;;;2.92;;
56399;SDS011;42298;53.638;9.876;2023-06-26T12:35:39;13.90;;;3.60;;
56399;SDS011;42298;53.638;9.876;2023-06-26T12:38:07;7.40;;;2.60;;
56399;SDS011;42298;53.638;9.876;2023-06-26T12:40:35;11.25;;;3.00;;
56399;SDS011;42298;53.638;9.876;2023-06-26T12:43:11;8.18;;;2.72;;
56399;SDS011;42298;53.638;9.876;2023-06-26T12:45:37;10.50;;;3.00;;
56399;SDS011;42298;53.638;9.876;2023-06-26T12:48:10;9.68;;;2.80;;
56399;SDS011;42298;53.638;9.876;2023-06-26T12:50:38;12.18;;;2.88;;
56399;SDS011;42298;53.638;9.876;2023-06-26T12:53:10;8.52;;;2.83;;
56399;SDS011;42298;53.638;9.876;2023-06-26T12:55:36;10.00;;;2.78;;
56399;SDS011;42298;53.638;9.876;2023-06-26T12:58:01;10.57;;;2.80;;
56399;SDS011;42298;53.638;9.876;2023-06-26T13:00:27;9.20;;;2.67;;
56399;SDS011;42298;53.638;9.876;2023-06-26T13:02:56;8.18;;;2.50;;
56399;SDS011;42298;53.638;9.876;2023-06-26T13:05:23;8.77;;;2.78;;
56399;SDS011;42298;53.638;9.876;2023-06-26T13:07:48;9.30;;;2.60;;
56399;SDS011;42298;53.638;9.876;2023-06-26T13:10:13;6.65;;;2.40;;
56399;SDS011;42298;53.638;9.876;2023-06-26T13:12:39;9.00;;;2.88;;
56399;SDS011;42298;53.638;9.876;2023-06-26T13:15:04;6.53;;;2.45;;
56399;SDS011;42298;53.638;9.876;2023-06-26T13:17:30;8.35;;;2.75;;
56399;SDS011;42298;53.638;9.876;2023-06-26T13:19:55;9.57;;;2.38;;
56399;SDS011;42298;53.638;9.876;2023-06-26T13:22:21;9.88;;;2.60;;
56399;SDS011;42298;53.638;9.876;2023-06-26T13:24:48;8.20;;;2.30;;
56399;SDS011;42298;53.638;9.876;2023-06-26T13:27:14;8.07;;;2.50;;
56399;SDS011;42298;53.638;9.876;2023-06-26T13:29:41;9.00;;;2.50;;
56399;SDS011;42298;53.638;9.876;2023-06-26T13:32:07;6.82;;;2.40;;
56399;SDS011;42298;53.638;9.876;2023-06-26T13:34:33;9.55;;;2.20;;
56399;SDS011;42298;53.638;9.876;2023-06-26T13:36:58;9.45;;;2.40;;
56399;SDS011;42298;53.638;9.876;2023-06-26T13:39:24;8.77;;;2.47;;
56399;SDS011;42298;53.638;9.876;2023-06-26T13:41:50;7.05;;;2.10;;
56399;SDS011;42298;53.638;9.876;2023-06-26T13:44:15;7.10;;;2.42;;
56399;SDS011;42298;53.638;9.876;2023-06-26T13:46:40;8.90;;;2.45;;
56399;SDS011;42298;53.638;9.876;2023-06-26T13:49:07;7.03;;;2.30;;
56399;SDS011;42298;53.638;9.876;2023-06-26T13:51:32;9.25;;;2.30;;
56399;SDS011;42298;53.638;9.876;2023-06-26T13:53:58;6.57;;;2.50;;
56399;SDS011;42298;53.638;9.876;2023-06-26T13:56:25;6.80;;;2.10;;
56399;SDS011;42298;53.638;9.876;2023-06-26T13:58:51;7.45;;;2.40;;
56399;SDS011;42298;53.638;9.876;2023-06-26T14:01:16;7.60;;;2.40;;
56399;SDS011;42298;53.638;9.876;2023-06-26T14:03:42;6.82;;;2.30;;
56399;SDS011;42298;53.638;9.876;2023-06-26T14:06:07;6.78;;;2.10;;
56399;SDS011;42298;53.638;9.876;2023-06-26T14:08:34;8.68;;;2.13;;
56399;SDS011;42298;53.638;9.876;2023-06-26T14:10:59;7.55;;;2.47;;
56399;SDS011;42298;53.638;9.876;2023-06-26T14:13:26;8.05;;;2.00;;
56399;SDS011;42298;53.638;9.876;2023-06-26T14:15:51;8.75;;;2.05;;
56399;SDS011;42298;53.638;9.876;2023-06-26T14:18:19;8.25;;;2.65;;
56399;SDS011;42298;53.638;9.876;2023-06-26T14:20:45;9.48;;;2.28;;
56399;SDS011;42298;53.638;9.876;2023-06-26T14:23:11;7.90;;;2.70;;
56399;SDS011;42298;53.638;9.876;2023-06-26T14:25:36;8.25;;;2.10;;
56399;SDS011;42298;53.638;9.876;2023-06-26T14:28:02;7.68;;;2.30;;
56399;SDS011;42298;53.638;9.876;2023-06-26T14:30:27;6.72;;;2.35;;
56399;SDS011;42298;53.638;9.876;2023-06-26T14:32:52;11.85;;;2.28;;
56399;SDS011;42298;53.638;9.876;2023-06-26T14:35:18;7.68;;;2.20;;
56399;SDS011;42298;53.638;9.876;2023-06-26T14:37:43;6.53;;;1.83;;
56399;SDS011;42298;53.638;9.876;2023-06-26T14:40:09;7.10;;;1.90;;
56399;SDS011;42298;53.638;9.876;2023-06-26T14:42:34;8.60;;;2.45;;
56399;SDS011;42298;53.638;9.876;2023-06-26T14:45:00;5.32;;;2.05;;